Time;durP1;ratioP1;P1;durP2;ratioP2;P2;SDS_P1;SDS_P2;PMS_P1;PMS_P2;Temp;Humidity;BMP_temperature;BMP_pressure;BME280_temperature;BME280_humidity;BME280_pressure;Samples;Min_cycle;Max_cycle;Signal;HPM_P1;HPM_P2
2021/12/04 00:00:09;;;;;;;12.93;7.75;;;;;;;5.46;80.50;101363.83;1698018;84;21183;-81
2021/12/04 00:02:45;;;;;;;10.80;6.62;;;;;;;5.44;80.45;101367.33;1655770;85;21693;-81
2021/12/04 00:05:18;;;;;;;10.20;6.70;;;;;;;5.45;80.46;101367.65;1684750;84;21201;-82
2021/12/04 00:07:50;;;;;;;;;;;;;;;5.47;80.41;101371.02;1658260;86;21310;-82
2021/12/04 00:10:27;;;;;;;12.28;8.05;;;;;;;5.50;80.40;101367.31;1709416;84;20204;-83
2021/12/04 00:12:57;;;;;;;10.55;7.50;;;;;;;5.52;80.45;101378.12;1696696;84;21728;-79
2021/12/04 00:15:35;;;;;;;12.73;6.87;;;;;;;5.51;80.09;101380.02;1685168;85;21962;-80
2021/12/04 00:18:08;;;;;;;12.37;6.80;;;;;;;5.51;80.16;101386.08;1684488;84;21270;-81
2021/12/04 00:20:41;;;;;;;10.17;7.27;;;;;;;5.49;80.02;101378.56;1655815;86;21744;-85
2021/12/04 00:23:14;;;;;;;12.55;7.83;;;;;;;5.48;79.93;101369.96;1690525;82;21243;-82
2021/12/04 00:25:46;;;;;;;11.50;7.30;;;;;;;5.43;79.83;101368.40;1684772;85;21179;-82
2021/12/04 00:28:20;;;;;;;16.60;7.37;;;;;;;5.36;79.76;101367.00;1713321;84;21149;-86
2021/12/04 00:30:56;;;;;;;11.50;7.85;;;;;;;5.29;79.97;101366.66;1712844;80;21167;-79
2021/12/04 00:33:31;;;;;;;16.97;8.28;;;;;;;5.23;80.26;101373.87;1796153;79;21292;-81
2021/12/04 00:36:10;;;;;;;13.62;8.43;;;;;;;5.21;80.63;101371.86;1799758;79;21344;-77
2021/12/04 00:50:05;;;;;;;12.30;7.87;;;;;;;5.30;80.90;101368.35;1796261;80;22037;-79
2021/12/04 00:52:38;;;;;;;12.85;9.30;;;;;;;5.34;80.57;101360.01;1797932;79;21167;-79
2021/12/04 00:55:11;;;;;;;14.07;9.15;;;;;;;5.32;80.34;101361.58;1799764;79;21882;-75
2021/12/04 00:57:44;;;;;;;13.18;8.65;;;;;;;5.26;79.82;101367.09;1801272;79;21233;-79
2021/12/04 01:00:17;;;;;;;13.13;8.60;;;;;;;5.19;80.07;101357.99;1796696;79;21210;-78
2021/12/04 01:02:49;;;;;;;13.60;8.98;;;;;;;5.17;80.24;101351.83;1796175;80;21245;-79
2021/12/04 01:05:22;;;;;;;15.58;9.85;;;;;;;5.21;80.37;101347.61;1796325;80;21579;-77
2021/12/04 01:07:55;;;;;;;17.47;10.60;;;;;;;5.24;80.32;101348.55;1796384;80;21167;-78
2021/12/04 01:10:28;;;;;;;15.48;10.03;;;;;;;5.21;80.10;101342.97;1796239;79;21720;-77
2021/12/04 01:13:06;;;;;;;15.03;8.95;;;;;;;5.18;80.22;101352.14;1801042;79;21866;-77
2021/12/04 01:15:41;;;;;;;14.95;9.98;;;;;;;5.18;80.32;101353.52;1800463;79;21708;-79
2021/12/04 01:18:16;;;;;;;21.55;11.50;;;;;;;5.17;80.54;101358.70;1798310;79;21324;-76
2021/12/04 01:20:48;;;;;;;18.95;11.63;;;;;;;5.17;80.37;101358.19;1766112;81;21328;-78
2021/12/04 01:23:20;;;;;;;18.37;11.77;;;;;;;5.17;80.33;101354.06;1734499;82;21332;-78
2021/12/04 01:25:53;;;;;;;17.57;11.38;;;;;;;5.16;80.13;101340.50;1742706;82;21878;-79
2021/12/04 01:28:27;;;;;;;15.18;10.23;;;;;;;5.12;80.23;101339.25;1796518;79;21371;-78
2021/12/04 01:31:00;;;;;;;21.27;10.58;;;;;;;5.10;80.23;101339.45;1796107;80;21371;-76
2021/12/04 01:33:33;;;;;;;20.52;10.95;;;;;;;5.08;80.16;101353.09;1804651;79;21414;-76
2021/12/04 01:36:10;;;;;;;19.23;12.30;;;;;;;5.06;80.21;101351.92;1810608;79;21154;-76
2021/12/04 01:38:43;;;;;;;18.15;10.72;;;;;;;5.06;80.08;101355.22;1810189;79;21355;-78
2021/12/04 01:41:16;;;;;;;17.55;9.75;;;;;;;5.06;79.97;101345.59;1803495;78;21862;-80
2021/12/04 01:43:50;;;;;;;16.55;10.63;;;;;;;5.07;79.86;101346.73;1812263;79;21824;-81
2021/12/04 01:46:24;;;;;;;18.75;11.90;;;;;;;5.04;79.55;101343.04;1810013;79;21368;-79
2021/12/04 01:48:56;;;;;;;19.55;11.68;;;;;;;5.03;79.64;101339.97;1809575;79;21175;-75
2021/12/04 01:51:30;;;;;;;22.40;11.53;;;;;;;5.05;79.81;101350.74;1809783;79;21344;-77
2021/12/04 01:54:04;;;;;;;18.60;11.55;;;;;;;5.09;79.70;101349.28;1809631;79;21658;-78
2021/12/04 01:56:36;;;;;;;18.85;11.10;;;;;;;5.11;79.55;101350.77;1812341;79;21313;-78
2021/12/04 01:59:09;;;;;;;21.90;11.33;;;;;;;5.10;79.32;101349.59;1812448;78;21303;-78
2021/12/04 02:01:41;;;;;;;18.77;11.83;;;;;;;5.09;79.33;101349.28;1814316;78;21145;-81
2021/12/04 02:04:17;;;;;;;20.33;12.13;;;;;;;5.08;79.29;101338.79;1812318;79;21457;-79
2021/12/04 02:06:49;;;;;;;19.42;12.00;;;;;;;5.11;79.30;101341.66;1810992;79;21878;-79
2021/12/04 02:09:22;;;;;;;18.25;12.03;;;;;;;5.09;79.05;101334.15;1811295;79;21311;-79
2021/12/04 02:11:55;;;;;;;17.75;11.35;;;;;;;5.04;79.11;101335.30;1811369;79;21371;-77
2021/12/04 02:14:27;;;;;;;17.27;11.90;;;;;;;5.03;79.36;101326.73;1810415;79;21178;-80
2021/12/04 02:17:01;;;;;;;21.20;12.50;;;;;;;5.05;79.54;101334.23;1813231;79;21164;-77
2021/12/04 02:19:34;;;;;;;21.45;12.73;;;;;;;5.05;79.47;101332.34;1813346;79;21188;-78
2021/12/04 02:22:06;;;;;;;20.97;12.47;;;;;;;5.04;79.38;101327.91;1813214;78;21366;-77
2021/12/04 02:24:40;;;;;;;21.68;12.68;;;;;;;5.00;79.47;101339.00;1813220;79;21176;-76
2021/12/04 02:27:13;;;;;;;19.37;11.13;;;;;;;4.96;79.53;101331.38;1813529;79;21441;-77
2021/12/04 02:29:49;;;;;;;21.02;11.57;;;;;;;4.90;79.70;101340.47;1813200;79;21725;-77
2021/12/04 02:32:22;;;;;;;20.97;12.70;;;;;;;4.88;80.03;101344.79;1813201;79;21873;-77
2021/12/04 02:34:54;;;;;;;21.65;13.70;;;;;;;4.89;80.14;101342.90;1817391;76;21310;-83
2021/12/04 02:37:27;;;;;;;23.05;12.35;;;;;;;4.87;80.09;101338.11;1774779;81;21368;-82
2021/12/04 02:40:00;;;;;;;20.30;11.50;;;;;;;4.87;80.02;101334.84;1834413;78;21310;-82
2021/12/04 02:42:32;;;;;;;;;;;;;;;4.88;79.93;101347.54;1777477;81;21333;-83
2021/12/04 02:45:08;;;;;;;20.52;12.33;;;;;;;4.88;79.55;101348.08;1817630;78;20242;-86
2021/12/04 02:47:41;;;;;;;17.73;11.70;;;;;;;4.87;79.38;101339.48;1831093;78;21700;-84
2021/12/04 02:50:17;;;;;;;19.40;12.45;;;;;;;4.84;78.63;101346.24;1829921;78;21230;-79
2021/12/04 02:52:56;;;;;;;20.95;11.90;;;;;;;4.79;78.43;101353.44;1826885;78;21273;-87
2021/12/04 02:55:30;;;;;;;19.52;11.65;;;;;;;4.73;78.38;101355.64;1827416;78;21217;-83
2021/12/04 02:58:02;;;;;;;17.25;11.22;;;;;;;4.72;78.83;101359.45;1837602;78;21217;-80
2021/12/04 03:00:36;;;;;;;19.33;11.20;;;;;;;4.74;78.93;101363.69;1833261;78;21360;-78
2021/12/04 03:03:09;;;;;;;21.45;12.55;;;;;;;4.75;78.80;101375.52;1772498;81;21700;-79
2021/12/04 03:05:46;;;;;;;22.42;13.08;;;;;;;4.75;78.51;101390.64;1801651;79;21166;-79
2021/12/04 03:11:20;;;;;;;21.20;11.12;;;;;;;4.74;78.20;101403.56;1700339;84;21724;-76
2021/12/04 03:13:52;;;;;;;20.57;12.10;;;;;;;4.77;77.79;101406.44;1719572;82;21189;-75
2021/12/04 03:16:25;;;;;;;;;;;;;;;4.74;77.49;101408.20;1722202;83;21218;-76
2021/12/04 03:18:57;;;;;;;19.57;13.15;;;;;;;4.75;77.51;101412.64;1707661;83;20274;-75
2021/12/04 03:21:30;;;;;;;21.62;13.28;;;;;;;4.73;77.84;101414.25;1690441;83;21326;-75
2021/12/04 03:24:05;;;;;;;19.40;11.10;;;;;;;4.74;77.76;101408.20;1690491;84;21743;-75
2021/12/04 03:26:38;;;;;;;18.73;12.03;;;;;;;4.70;77.39;101417.94;1690630;85;21269;-77
2021/12/04 03:29:18;;;;;;;18.55;11.93;;;;;;;4.67;77.78;101422.45;1690866;83;21395;-78
2021/12/04 03:42:56;;;;;;;20.32;12.18;;;;;;;4.67;78.13;101399.08;1690522;84;21794;-86
2021/12/04 03:45:52;;;;;;;21.00;12.68;;;;;;;4.64;78.33;101397.59;1632903;86;21468;-77
2021/12/04 03:51:07;;;;;;;19.73;12.45;;;;;;;4.59;78.67;101410.27;1632745;86;21201;-76
2021/12/04 03:53:39;;;;;;;23.40;12.18;;;;;;;4.54;78.70;101401.77;1632989;86;21905;-75
2021/12/04 03:56:14;;;;;;;19.23;12.70;;;;;;;4.51;79.20;101407.66;1633102;88;21224;-75
2021/12/04 03:58:48;;;;;;;26.40;13.58;;;;;;;4.46;79.30;101402.78;1632924;86;21391;-76
2021/12/04 04:01:21;;;;;;;23.65;12.95;;;;;;;4.48;79.54;101397.09;1632941;86;21343;-75
2021/12/04 04:03:54;;;;;;;19.50;12.05;;;;;;;4.48;79.43;101391.59;1633246;86;21363;-77
2021/12/04 04:06:26;;;;;;;20.82;12.23;;;;;;;4.46;79.54;101397.83;1633062;86;21225;-75
2021/12/04 04:08:59;;;;;;;21.57;12.13;;;;;;;4.44;79.54;101394.41;1633146;86;21848;-75
2021/12/04 04:11:35;;;;;;;23.32;12.68;;;;;;;4.44;79.87;101394.41;1633086;86;21217;-75
2021/12/04 04:14:07;;;;;;;30.50;14.93;;;;;;;4.47;79.64;101397.61;1633095;86;21352;-76
2021/12/04 04:16:41;;;;;;;17.70;11.65;;;;;;;4.49;79.38;101401.53;1632968;88;21343;-75
2021/12/04 04:19:13;;;;;;;22.15;12.73;;;;;;;4.48;79.34;101403.96;1634529;86;21429;-76
2021/12/04 04:21:46;;;;;;;21.40;12.25;;;;;;;4.48;79.27;101405.34;1636480;86;21431;-75
2021/12/04 04:24:18;;;;;;;24.27;12.45;;;;;;;4.46;79.05;101410.20;1636371;88;21464;-76
2021/12/04 04:26:52;;;;;;;20.92;13.10;;;;;;;4.46;79.00;101405.53;1636449;87;21197;-76
2021/12/04 04:29:25;;;;;;;18.50;12.98;;;;;;;4.45;79.05;101414.84;1635145;88;21336;-74
2021/12/04 04:31:57;;;;;;;22.52;12.70;;;;;;;4.42;78.78;101423.50;1633931;86;21425;-75
2021/12/04 04:34:32;;;;;;;21.00;12.43;;;;;;;4.41;78.94;101425.08;1631730;86;21345;-74
2021/12/04 04:37:30;;;;;;;19.95;12.90;;;;;;;4.43;78.83;101429.83;1630430;86;21868;-75
2021/12/04 05:11:36;;;;;;;29.70;15.30;;;;;;;3.86;82.48;101410.01;1702452;82;21568;-78
2021/12/04 05:13:17;;;;;;;22.55;14.25;;;;;;;3.78;82.89;101406.87;1697568;82;21171;-81
2021/12/04 05:21:05;;;;;;;29.80;17.90;;;;;;;3.62;84.85;101403.58;1716780;82;21333;-77
2021/12/04 05:23:42;;;;;;;31.00;17.48;;;;;;;3.59;85.17;101402.58;1666846;85;21218;-76
2021/12/04 05:26:27;;;;;;;29.70;16.23;;;;;;;3.55;85.64;101406.80;1691176;84;21454;-79
2021/12/04 05:29:01;;;;;;;25.40;15.53;;;;;;;3.47;86.16;101398.67;1689143;83;21393;-75
2021/12/04 05:31:34;;;;;;;27.23;16.30;;;;;;;3.44;86.65;101404.06;1690992;82;21328;-79
2021/12/04 05:34:06;;;;;;;30.88;15.90;;;;;;;3.44;86.83;101412.80;1687309;85;21416;-80
2021/12/04 05:36:39;;;;;;;24.47;15.47;;;;;;;3.41;86.97;101413.18;1690008;84;21585;-73
2021/12/04 05:39:13;;;;;;;29.13;15.37;;;;;;;3.36;87.24;101410.20;1654619;83;21335;-76
2021/12/04 05:41:45;;;;;;;30.25;17.95;;;;;;;3.35;87.47;101413.46;1690179;83;21355;-81
2021/12/04 05:44:22;;;;;;;30.77;15.50;;;;;;;3.36;87.65;101408.84;1691111;83;21827;-82
2021/12/04 05:46:55;;;;;;;27.30;15.87;;;;;;;3.35;87.86;101404.36;1687815;82;21379;-82
2021/12/04 05:49:46;;;;;;;28.50;15.17;;;;;;;3.33;88.10;101407.84;1685370;85;21281;-81
2021/12/04 05:52:20;;;;;;;28.87;16.82;;;;;;;3.32;88.42;101408.89;1686675;85;21328;-80
2021/12/04 05:57:39;;;;;;;36.07;17.13;;;;;;;3.31;88.44;101403.91;1693099;83;21253;-80
2021/12/04 06:00:18;;;;;;;29.45;16.25;;;;;;;3.35;88.47;101406.59;1693058;82;21718;-84
2021/12/04 06:02:51;;;;;;;28.55;16.30;;;;;;;3.37;88.43;101398.18;1693183;82;21383;-80
2021/12/04 06:05:23;;;;;;;29.85;16.27;;;;;;;3.38;88.42;101405.36;1693410;85;21343;-80
2021/12/04 06:07:55;;;;;;;33.10;16.90;;;;;;;3.39;88.37;101409.29;1693262;83;21692;-80
2021/12/04 06:10:29;;;;;;;27.42;16.57;;;;;;;3.35;88.23;101413.97;1693272;83;21772;-79
2021/12/04 06:13:01;;;;;;;30.75;17.87;;;;;;;3.33;88.35;101409.21;1690748;82;21331;-79
2021/12/04 06:15:34;;;;;;;106.20;35.10;;;;;;;3.32;88.42;101416.61;1647878;85;21249;-79
2021/12/04 06:18:08;;;;;;;117.13;37.90;;;;;;;3.34;88.53;101417.25;1681109;84;21273;-79
2021/12/04 06:23:32;;;;;;;125.27;48.65;;;;;;;3.30;88.50;101424.17;1665339;84;21304;-75
2021/12/04 06:26:06;;;;;;;108.60;44.70;;;;;;;3.31;88.66;101423.66;1665549;84;21200;-78
2021/12/04 06:28:40;;;;;;;76.28;35.25;;;;;;;3.31;88.68;101419.55;1673964;85;21347;-83
2021/12/04 06:31:12;;;;;;;44.23;23.18;;;;;;;3.27;88.80;101422.34;1675408;85;21225;-80
2021/12/04 06:33:46;;;;;;;30.85;17.15;;;;;;;3.23;88.57;101413.66;1671726;83;21590;-79
2021/12/04 06:36:21;;;;;;;30.10;16.17;;;;;;;3.21;88.65;101417.13;1677914;83;21213;-84
2021/12/04 06:38:54;;;;;;;29.77;17.00;;;;;;;3.17;88.89;101415.80;1676529;85;21248;-75
2021/12/04 06:41:26;;;;;;;27.02;16.57;;;;;;;3.15;88.95;101425.27;1686737;85;21178;-77
2021/12/04 06:44:01;;;;;;;29.57;17.32;;;;;;;3.11;89.15;101433.58;1677423;85;21272;-78
2021/12/04 06:46:35;;;;;;;;;;;;;;;3.10;89.28;101431.85;1681527;85;21225;-80
2021/12/04 06:49:22;;;;;;;31.77;19.23;;;;;;;3.16;89.54;101432.45;1680237;85;20191;-77
2021/12/04 06:51:46;;;;;;;32.20;18.53;;;;;;;3.21;89.56;101436.83;1673450;85;21241;-74
2021/12/04 06:54:22;;;;;;;29.60;17.27;;;;;;;3.23;89.37;101434.23;1686557;83;21173;-80
2021/12/04 06:56:56;;;;;;;25.12;15.20;;;;;;;3.22;89.20;101432.53;1701143;83;21209;-81
2021/12/04 06:59:31;;;;;;;32.33;17.90;;;;;;;3.23;89.22;101434.73;1699514;83;21318;-74
2021/12/04 07:02:04;;;;;;;31.97;19.23;;;;;;;3.23;89.09;101436.11;1702685;83;21248;-75
2021/12/04 07:04:37;;;;;;;37.00;19.17;;;;;;;3.15;88.98;101431.62;1716981;83;21189;-76
2021/12/04 07:07:13;;;;;;;30.45;17.10;;;;;;;3.11;89.08;101434.41;1729136;81;21760;-78
2021/12/04 07:09:46;;;;;;;33.08;16.52;;;;;;;3.10;89.11;101433.22;1728903;81;21700;-75
2021/12/04 07:12:20;;;;;;;27.05;16.32;;;;;;;3.07;89.13;101435.00;1700679;83;21238;-78
2021/12/04 07:14:53;;;;;;;33.13;18.23;;;;;;;3.02;89.32;101431.48;1690779;84;21371;-73
2021/12/04 07:17:27;;;;;;;33.85;18.30;;;;;;;2.99;89.56;101431.02;1689740;84;21205;-73
2021/12/04 07:19:59;;;;;;;34.33;18.90;;;;;;;2.94;89.59;101433.48;1690529;83;21786;-73
2021/12/04 07:22:33;;;;;;;31.90;17.92;;;;;;;2.92;89.94;101434.17;1708062;82;21252;-75
2021/12/04 07:25:06;;;;;;;32.60;19.70;;;;;;;2.89;90.28;101432.66;1687643;83;21336;-74
2021/12/04 07:27:38;;;;;;;32.90;20.32;;;;;;;2.87;90.58;101431.19;1691847;83;21403;-73
2021/12/04 07:30:11;;;;;;;33.63;19.43;;;;;;;2.82;90.73;101420.77;1689649;82;21202;-82
2021/12/04 07:32:44;;;;;;;35.52;19.82;;;;;;;2.81;90.95;101424.56;1703742;83;21192;-81
2021/12/04 07:35:19;;;;;;;36.77;21.87;;;;;;;2.80;91.12;101421.50;1700630;83;21755;-77
2021/12/04 07:38:11;;;;;;;39.37;21.23;;;;;;;2.78;91.37;101421.36;1706067;82;21290;-82
2021/12/04 07:41:24;;;;;;;35.40;19.00;;;;;;;2.74;91.57;101422.27;1680852;83;21360;-77
2021/12/04 07:43:57;;;;;;;37.48;20.85;;;;;;;2.71;91.86;101425.91;1689721;83;21174;-80
2021/12/04 07:49:38;;;;;;;43.30;24.87;;;;;;;2.73;92.41;101430.67;1694448;82;22543;-77
2021/12/04 07:52:11;;;;;;;40.08;23.52;;;;;;;2.73;92.49;101436.16;1703835;83;21329;-73
2021/12/04 07:54:48;;;;;;;45.50;25.40;;;;;;;2.74;92.71;101438.71;1695559;83;21212;-77
2021/12/04 07:57:21;;;;;;;50.83;26.67;;;;;;;2.76;92.93;101433.05;1703546;83;21322;-77
2021/12/04 07:59:54;;;;;;;50.92;26.07;;;;;;;2.78;92.90;101427.70;1699891;83;21851;-83
2021/12/04 08:02:42;;;;;;;35.23;22.60;;;;;;;2.84;93.01;101432.92;1706250;83;21413;-77
2021/12/04 08:05:13;;;;;;;39.63;22.93;;;;;;;2.88;92.99;101439.19;1663661;84;21354;-81
2021/12/04 08:07:48;;;;;;;40.43;24.47;;;;;;;2.93;92.93;101431.78;1702676;83;21343;-78
2021/12/04 08:10:37;;;;;;;45.13;24.97;;;;;;;2.97;92.94;101430.34;1697461;83;21306;-76
2021/12/04 08:13:10;;;;;;;49.43;22.70;;;;;;;3.00;92.85;101421.20;1694185;83;21384;-76
2021/12/04 08:15:47;;;;;;;37.65;22.52;;;;;;;3.05;92.82;101419.27;1703365;83;21422;-75
2021/12/04 08:18:23;;;;;;;38.40;22.53;;;;;;;3.10;92.82;101417.63;1699907;83;21837;-78
2021/12/04 08:20:57;;;;;;;44.70;24.83;;;;;;;3.17;92.82;101415.80;1694341;83;21429;-77
2021/12/04 08:23:29;;;;;;;40.40;22.77;;;;;;;3.22;92.68;101411.09;1703089;83;21734;-75
2021/12/04 08:26:02;;;;;;;40.25;22.07;;;;;;;3.25;92.55;101412.09;1682991;85;21287;-73
2021/12/04 08:28:36;;;;;;;38.33;21.37;;;;;;;3.28;92.51;101397.46;1690898;83;21199;-73
2021/12/04 08:31:09;;;;;;;35.75;18.90;;;;;;;3.35;92.62;101395.63;1706856;83;21185;-75
2021/12/04 08:33:42;;;;;;;43.38;21.48;;;;;;;3.43;92.61;101405.63;1713235;82;21398;-73
2021/12/04 08:36:17;;;;;;;35.10;19.40;;;;;;;3.53;92.71;101406.98;1720341;82;21214;-76
2021/12/04 08:38:50;;;;;;;33.48;18.10;;;;;;;3.63;92.44;101397.03;1725670;82;21452;-75
2021/12/04 08:41:23;;;;;;;32.80;18.32;;;;;;;3.68;92.07;101398.12;1690834;82;21286;-72
2021/12/04 08:43:59;;;;;;;38.77;17.70;;;;;;;3.70;91.99;101397.42;1700560;83;21196;-75
2021/12/04 08:46:34;;;;;;;34.75;19.10;;;;;;;3.76;91.97;101394.39;1697045;83;21825;-72
2021/12/04 08:49:07;;;;;;;39.27;19.97;;;;;;;3.76;91.63;101388.39;1717997;81;21696;-76
2021/12/04 08:51:46;;;;;;;42.90;22.60;;;;;;;3.74;91.36;101372.63;1720096;82;21385;-77
2021/12/04 08:54:18;;;;;;;49.35;28.40;;;;;;;3.69;91.29;101376.52;1688007;83;21347;-77
2021/12/04 08:56:57;;;;;;;53.85;30.08;;;;;;;3.63;91.16;101370.95;1713673;82;21577;-72
2021/12/04 08:59:32;;;;;;;56.28;28.55;;;;;;;3.60;91.19;101370.00;1694382;83;21354;-75
2021/12/04 09:02:04;;;;;;;53.80;29.82;;;;;;;3.59;91.15;101357.30;1699115;83;21345;-76
2021/12/04 09:05:02;;;;;;;;;;;;;;;;;;;;;
2021/12/04 09:07:44;;;;;;;52.85;26.77;;;;;;;3.59;91.09;101339.45;1657742;85;21306;-76
2021/12/04 09:10:19;;;;;;;49.88;25.08;;;;;;;3.57;91.11;101336.94;1677819;84;21412;-77
2021/12/04 09:12:51;;;;;;;46.48;24.67;;;;;;;3.57;91.22;101323.21;1675558;85;21797;-75
2021/12/04 09:15:35;;;;;;;44.95;25.70;;;;;;;3.57;91.34;101327.33;1678657;85;21853;-76
2021/12/04 09:18:09;;;;;;;56.17;25.77;;;;;;;3.57;91.37;101318.23;1674911;85;21200;-75
2021/12/04 09:20:42;;;;;;;41.30;22.20;;;;;;;3.55;91.41;101318.42;1678646;85;21292;-74
2021/12/04 09:23:17;;;;;;;40.55;22.35;;;;;;;3.56;91.55;101330.27;1675942;84;21193;-78
2021/12/04 09:25:54;;;;;;;41.90;21.87;;;;;;;3.59;91.71;101322.48;1674417;85;21342;-75
2021/12/04 09:28:48;;;;;;;39.95;22.35;;;;;;;3.67;91.97;101311.33;1677574;84;21342;-75
2021/12/04 10:19:26;;;;;;;26.07;14.68;;;;;;;4.83;88.23;101275.80;1735405;82;21193;-73
2021/12/04 10:22:25;;;;;;;22.50;13.98;;;;;;;4.85;88.50;101279.20;1737684;82;21202;-76
2021/12/04 10:33:47;;;;;;;36.00;20.30;;;;;;;4.81;87.59;101281.19;1704516;83;21363;-78
2021/12/04 10:36:33;;;;;;;40.10;22.80;;;;;;;4.83;87.91;101279.92;1717262;83;21240;-72
2021/12/04 10:39:11;;;;;;;48.87;27.05;;;;;;;4.88;88.11;101273.82;1744769;80;21330;-76
2021/12/04 10:42:02;;;;;;;;;;;;;;;;;;;;;
2021/12/04 10:44:26;;;;;;;37.35;20.95;;;;;;;4.97;87.96;101273.92;1734713;80;21362;-72
2021/12/04 10:47:15;;;;;;;34.90;19.25;;;;;;;4.95;87.63;101268.63;1721354;82;21696;-75
2021/12/04 11:21:37;;;;;;;30.43;18.62;;;;;;;4.84;86.35;101236.77;1721122;82;21959;-77
2021/12/04 11:41:11;;;;;;;48.58;24.37;;;;;;;4.89;86.01;101221.88;1719328;82;21975;-74
2021/12/04 11:43:48;;;;;;;54.05;27.62;;;;;;;4.92;86.04;101210.43;1712405;83;21254;-75
2021/12/04 11:48:48;;;;;;;37.58;20.20;;;;;;;4.95;86.26;101205.35;1699445;83;21339;-74
2021/12/04 11:51:23;;;;;;;37.05;19.62;;;;;;;4.97;86.16;101206.52;1739394;81;21224;-75
2021/12/04 11:53:56;;;;;;;31.82;19.23;;;;;;;4.98;86.12;101204.09;1714090;83;21523;-76
2021/12/04 11:56:49;;;;;;;48.73;20.80;;;;;;;4.96;86.08;101204.28;1680932;84;21384;-78
2021/12/04 11:59:42;;;;;;;43.20;22.35;;;;;;;4.96;86.18;101197.95;1723660;81;21309;-76
2021/12/04 12:02:24;;;;;;;38.95;21.02;;;;;;;5.05;86.40;101206.30;1725514;82;21395;-75
2021/12/04 12:04:57;;;;;;;35.28;20.90;;;;;;;5.05;85.97;101208.53;1723145;81;21262;-75
2021/12/04 12:07:31;;;;;;;38.15;20.43;;;;;;;5.07;85.80;101200.91;1705893;82;21723;-75
2021/12/04 12:10:12;;;;;;;41.28;22.25;;;;;;;5.09;85.78;101186.94;1733920;80;21279;-77
2021/12/04 12:12:47;;;;;;;46.33;22.42;;;;;;;5.14;85.93;101187.98;1728468;82;21380;-78
2021/12/04 12:15:30;;;;;;;36.28;21.02;;;;;;;5.17;85.74;101189.46;1737749;81;21188;-79
2021/12/04 12:18:17;;;;;;;34.98;19.52;;;;;;;5.13;84.98;101193.17;1725265;82;21241;-78
2021/12/04 12:20:58;;;;;;;34.33;19.00;;;;;;;5.01;85.04;101195.42;1727212;81;21337;-76
2021/12/04 12:23:32;;;;;;;36.30;19.02;;;;;;;4.93;85.60;101191.48;1703670;83;21368;-75
2021/12/04 12:26:28;;;;;;;30.55;18.10;;;;;;;4.95;85.59;101187.47;1716670;83;22128;-75
2021/12/04 12:31:50;;;;;;;31.12;17.87;;;;;;;4.99;85.67;101179.13;1699616;84;21253;-77
2021/12/04 12:32:04;;;;;;;29.57;17.77;;;;;;;4.99;85.25;101176.88;1711304;83;21403;-73
2021/12/04 12:37:26;;;;;;;25.62;15.63;;;;;;;4.93;85.75;101185.98;1714845;83;21258;-72
2021/12/04 12:40:26;;;;;;;25.32;14.07;;;;;;;4.92;85.40;101182.92;1708605;82;22262;-82
2021/12/04 12:43:16;;;;;;;22.52;12.65;;;;;;;4.92;85.32;101182.41;1690996;83;21396;-80
2021/12/04 12:45:58;;;;;;;23.32;11.78;;;;;;;4.94;85.19;101172.58;1712981;82;21326;-78
2021/12/04 12:48:32;;;;;;;20.25;11.78;;;;;;;4.97;84.97;101174.38;1684755;81;21354;-77
2021/12/04 12:51:08;;;;;;;24.07;14.18;;;;;;;5.03;84.87;101169.91;1660531;85;21402;-78
2021/12/04 12:53:46;;;;;;;27.27;15.70;;;;;;;5.02;84.24;101175.93;1721733;82;21361;-83
2021/12/04 12:56:18;;;;;;;32.55;18.05;;;;;;;5.01;84.42;101167.91;1728849;82;21325;-78
2021/12/04 12:59:05;;;;;;;27.37;15.28;;;;;;;4.97;84.26;101170.77;1724463;82;21198;-79
2021/12/04 13:13:41;;;;;;;25.68;15.28;;;;;;;4.96;84.44;101151.19;1663724;85;21939;-77
2021/12/04 13:16:21;;;;;;;28.20;14.70;;;;;;;5.01;84.36;101148.11;1670158;84;21245;-78
2021/12/04 13:18:58;;;;;;;23.60;14.03;;;;;;;5.04;84.43;101141.33;1701703;83;21173;-79
2021/12/04 13:21:36;;;;;;;24.10;13.43;;;;;;;5.06;84.22;101147.49;1720268;83;21384;-75
2021/12/04 13:24:12;;;;;;;24.00;12.65;;;;;;;5.06;83.80;101148.31;1733872;81;21383;-80
2021/12/04 13:26:51;;;;;;;20.40;11.55;;;;;;;5.06;83.43;101146.94;1718397;82;21390;-78
2021/12/04 13:29:27;;;;;;;17.73;11.95;;;;;;;5.05;83.30;101145.77;1721674;82;21264;-79
2021/12/04 13:31:59;;;;;;;28.20;13.45;;;;;;;5.05;83.35;101147.14;1697610;83;21323;-77
2021/12/04 13:34:35;;;;;;;23.92;13.15;;;;;;;5.05;83.38;101136.14;1706835;83;21253;-80
2021/12/04 13:37:08;;;;;;;23.32;12.33;;;;;;;5.05;83.06;101134.25;1733781;82;21396;-83
2021/12/04 13:39:44;;;;;;;25.08;14.25;;;;;;;5.06;82.92;101136.48;1725348;82;21328;-79
2021/12/04 13:42:18;;;;;;;28.50;13.93;;;;;;;5.10;83.05;101142.72;1699054;83;21274;-77
2021/12/04 13:45:00;;;;;;;27.13;14.38;;;;;;;5.12;82.90;101145.26;1702232;83;21333;-77
2021/12/04 13:47:35;;;;;;;30.30;15.23;;;;;;;5.08;82.40;101141.23;1700780;83;21269;-80
2021/12/04 13:53:18;;;;;;;32.78;14.40;;;;;;;4.99;82.92;101135.10;1605062;85;21789;-74
2021/12/04 13:56:00;;;;;;;29.20;14.63;;;;;;;4.98;83.12;101132.05;1669543;84;21359;-76
2021/12/04 13:58:37;;;;;;;25.68;14.58;;;;;;;5.02;83.32;101131.91;1659071;84;21324;-83
2021/12/04 14:01:10;;;;;;;32.88;15.32;;;;;;;5.08;82.94;101125.55;1658466;84;21355;-77
2021/12/04 14:03:44;;;;;;;20.97;12.98;;;;;;;5.06;82.57;101130.98;1682715;84;21362;-76
2021/12/04 14:06:19;;;;;;;33.58;12.90;;;;;;;5.02;82.36;101132.45;1680532;84;21260;-77
2021/12/04 14:09:00;;;;;;;23.70;13.58;;;;;;;4.95;82.56;101127.50;1719720;82;21333;-76
2021/12/04 14:11:35;;;;;;;25.12;13.43;;;;;;;4.89;82.60;101121.48;1712901;82;21456;-79
2021/12/04 14:14:22;;;;;;;25.52;14.78;;;;;;;4.90;82.87;101117.66;1736833;82;21427;-80
2021/12/04 14:17:12;;;;;;;22.42;12.95;;;;;;;4.96;82.92;101119.56;1737237;81;21214;-75
2021/12/04 14:19:46;;;;;;;21.80;13.15;;;;;;;4.94;83.07;101114.81;1728650;82;21250;-76
2021/12/04 14:22:23;;;;;;;19.75;13.28;;;;;;;4.93;83.24;101122.20;1736550;82;21258;-78
2021/12/04 14:25:02;;;;;;;23.35;13.03;;;;;;;4.95;83.24;101122.83;1725021;82;21176;-73
2021/12/04 14:27:36;;;;;;;25.62;13.58;;;;;;;5.00;83.16;101125.78;1722141;82;21878;-73
2021/12/04 14:30:22;;;;;;;23.45;13.93;;;;;;;5.05;82.73;101123.77;1687751;83;22423;-76
2021/12/04 14:33:07;;;;;;;22.42;13.03;;;;;;;5.02;82.37;101129.71;1702109;83;21535;-78
2021/12/04 14:35:46;;;;;;;;;;;;;;;5.03;82.29;101138.27;1705681;83;21223;-78
2021/12/04 14:38:24;;;;;;;22.40;13.70;;;;;;;5.03;82.39;101139.13;1700645;83;20287;-75
2021/12/04 14:41:04;;;;;;;23.85;13.78;;;;;;;5.01;81.62;101139.03;1702608;83;21353;-79
2021/12/04 14:43:38;;;;;;;21.97;13.90;;;;;;;5.00;81.42;101135.97;1702283;83;21354;-78
2021/12/04 14:46:16;;;;;;;25.50;14.43;;;;;;;4.97;81.15;101141.36;1704061;83;21927;-77
2021/12/04 14:48:51;;;;;;;25.95;11.85;;;;;;;4.91;81.00;101139.98;1643457;85;21363;-79
2021/12/04 14:51:26;;;;;;;25.30;13.13;;;;;;;4.90;80.98;101145.16;1729100;82;21388;-75
2021/12/04 14:53:59;;;;;;;20.82;12.70;;;;;;;4.91;80.81;101143.59;1698402;83;22100;-76
2021/12/04 14:56:34;;;;;;;20.48;11.80;;;;;;;4.87;80.68;101141.45;1699800;83;21936;-74
2021/12/04 14:59:15;;;;;;;23.62;12.33;;;;;;;4.82;80.55;101139.89;1700615;82;21750;-70
2021/12/04 15:01:50;;;;;;;22.62;12.90;;;;;;;4.83;80.77;101148.45;1700502;83;21183;-76
2021/12/04 15:04:22;;;;;;;21.50;12.60;;;;;;;4.87;80.91;101143.69;1700180;82;21368;-74
2021/12/04 15:06:57;;;;;;;26.15;13.88;;;;;;;4.86;80.36;101148.02;1699372;82;21886;-75
2021/12/04 15:09:30;;;;;;;24.55;13.20;;;;;;;4.80;80.30;101148.86;1699944;83;21218;-75
2021/12/04 15:12:06;;;;;;;20.68;12.23;;;;;;;4.75;79.92;101145.89;1639441;85;21488;-73
2021/12/04 15:14:43;;;;;;;20.05;12.07;;;;;;;4.70;80.01;101138.84;1702737;83;21238;-76
2021/12/04 15:17:17;;;;;;;31.62;11.83;;;;;;;4.69;79.91;101135.23;1714947;82;21190;-78
2021/12/04 15:19:53;;;;;;;23.47;14.43;;;;;;;4.72;80.09;101144.96;1695800;83;21401;-79